createdAt,value
2022-10-08T00:00:21.144Z,51.259506
2022-10-08T00:01:21.140Z,51.259563
2022-10-08T00:02:21.136Z,51.259598
2022-10-08T00:03:21.148Z,51.259640
2022-10-08T00:04:21.143Z,51.259579
2022-10-08T00:05:21.105Z,51.259491
2022-10-08T00:06:21.086Z,51.259499
2022-10-08T00:07:21.080Z,51.259506
2022-10-08T00:08:21.100Z,51.259472
2022-10-08T00:09:21.061Z,51.259491
2022-10-08T00:10:21.051Z,51.259426
2022-10-08T00:11:21.068Z,51.259548
2022-10-08T00:12:21.075Z,51.259510
2022-10-08T00:13:21.027Z,51.259563
2022-10-08T00:14:21.035Z,51.259575
2022-10-08T00:15:21.004Z,51.259499
2022-10-08T00:16:21.009Z,51.259556
2022-10-08T00:17:20.984Z,51.259541
2022-10-08T00:18:20.974Z,51.259571
2022-10-08T00:19:20.987Z,51.259563
2022-10-08T00:20:20.952Z,51.259533
2022-10-08T00:21:20.945Z,51.259624
2022-10-08T00:22:20.944Z,51.259682
2022-10-08T00:23:20.925Z,51.259701
2022-10-08T00:24:20.931Z,51.259686
2022-10-08T00:25:20.906Z,51.259552
2022-10-08T00:26:20.897Z,51.259464
2022-10-08T00:27:20.889Z,51.259396
2022-10-08T00:28:20.928Z,51.259548
2022-10-08T00:29:20.889Z,51.259609
2022-10-08T00:30:20.859Z,51.259628
2022-10-08T00:31:20.920Z,51.259781
2022-10-08T00:32:20.840Z,51.259747
2022-10-08T00:33:20.835Z,51.259640
2022-10-08T00:34:20.840Z,51.259556
2022-10-08T00:35:20.799Z,51.259575
2022-10-08T00:36:20.798Z,51.259560
2022-10-08T00:37:20.786Z,51.259563
2022-10-08T00:38:20.783Z,51.259583
2022-10-08T00:39:20.789Z,51.259613
2022-10-08T00:40:20.756Z,51.259617
2022-10-08T00:41:20.796Z,51.259609
2022-10-08T00:42:20.741Z,51.259640
2022-10-08T00:43:23.970Z,51.259499
2022-10-08T00:44:20.768Z,51.259506
2022-10-08T00:45:20.728Z,51.259541
2022-10-08T00:46:20.704Z,51.259544
2022-10-08T00:47:20.681Z,51.259548
2022-10-08T00:48:20.681Z,51.259548
2022-10-08T00:49:20.691Z,51.259693
2022-10-08T00:50:20.662Z,51.259838
2022-10-08T00:51:52.558Z,51.259827
2022-10-08T00:52:20.643Z,51.259815
2022-10-08T00:53:20.633Z,51.259624
2022-10-08T00:54:20.647Z,51.259617
2022-10-08T00:55:20.618Z,51.259548
2022-10-08T00:56:20.611Z,51.259571
2022-10-08T00:57:20.587Z,51.259598
2022-10-08T00:58:20.585Z,51.259636
2022-10-08T00:59:20.617Z,51.259632
2022-10-08T01:00:20.560Z,51.259598
2022-10-08T01:01:20.584Z,51.259563
2022-10-08T01:02:20.579Z,51.259624
2022-10-08T01:03:20.522Z,51.259499
2022-10-08T01:04:20.551Z,51.259556
2022-10-08T01:05:20.518Z,51.259541
2022-10-08T01:06:20.505Z,51.259502
2022-10-08T01:07:20.485Z,51.259541
2022-10-08T01:08:20.493Z,51.259544
2022-10-08T01:09:20.502Z,51.259518
2022-10-08T01:10:20.467Z,51.259613
2022-10-08T01:11:20.454Z,51.259548
2022-10-08T01:12:20.446Z,51.259556
2022-10-08T01:13:20.435Z,51.259579
2022-10-08T01:14:20.440Z,51.259506
2022-10-08T01:15:20.412Z,51.259598
2022-10-08T01:16:20.478Z,51.259640
2022-10-08T01:17:20.408Z,51.259594
2022-10-08T01:18:20.395Z,51.259602
2022-10-08T01:19:20.399Z,51.259632
2022-10-08T01:20:20.371Z,51.259605
2022-10-08T01:21:20.358Z,51.259686
2022-10-08T01:22:20.351Z,51.259636
2022-10-08T01:23:20.344Z,51.259693
2022-10-08T01:24:20.349Z,51.259430
2022-10-08T01:25:20.324Z,51.259483
2022-10-08T01:26:20.313Z,51.259628
2022-10-08T01:27:20.300Z,51.259563
2022-10-08T01:28:20.357Z,51.259529
2022-10-08T01:29:20.303Z,51.259579
2022-10-08T01:30:20.270Z,51.259548
2022-10-08T01:31:20.326Z,51.259613
2022-10-08T01:32:20.255Z,51.259521
2022-10-08T01:33:20.249Z,51.259567
2022-10-08T01:34:20.268Z,51.259583
2022-10-08T01:35:20.214Z,51.259529
2022-10-08T01:36:20.216Z,51.259541
2022-10-08T01:37:20.202Z,51.259563
2022-10-08T01:38:20.189Z,51.259647
2022-10-08T01:39:20.203Z,51.259586
2022-10-08T01:40:20.202Z,51.259632
2022-10-08T01:41:20.172Z,51.259636
2022-10-08T01:42:20.155Z,51.259613
2022-10-08T01:43:20.143Z,51.259624
2022-10-08T01:44:20.152Z,51.259441
2022-10-08T01:45:20.123Z,51.259705
2022-10-08T01:46:20.117Z,51.259731
2022-10-08T01:47:20.101Z,51.259514
2022-10-08T01:48:20.093Z,51.259663
2022-10-08T01:49:20.104Z,51.259800
2022-10-08T01:50:21.077Z,51.259598
2022-10-08T01:51:20.053Z,51.259785
2022-10-08T01:52:20.056Z,51.259956
2022-10-08T01:53:20.043Z,51.259899
2022-10-08T01:54:20.061Z,51.259930
2022-10-08T01:55:20.019Z,51.259533
2022-10-08T01:56:20.023Z,51.259594
2022-10-08T01:57:20.013Z,51.259357
2022-10-08T01:58:19.996Z,51.259315
2022-10-08T01:59:20.010Z,51.259342
2022-10-08T02:00:19.980Z,51.259373
2022-10-08T02:01:20.053Z,51.259434
2022-10-08T02:02:20.068Z,51.259365
2022-10-08T02:03:19.956Z,51.259323
2022-10-08T02:04:19.976Z,51.259281
2022-10-08T02:05:19.943Z,51.259403
2022-10-08T02:06:19.922Z,51.259434
2022-10-08T02:07:19.923Z,51.259518
2022-10-08T02:08:19.904Z,51.259377
2022-10-08T02:09:19.909Z,51.259480
2022-10-08T02:10:19.883Z,51.259518
2022-10-08T02:11:19.901Z,51.259594
2022-10-08T02:12:19.876Z,51.259689
2022-10-08T02:13:19.849Z,51.259617
2022-10-08T02:14:19.861Z,51.259583
2022-10-08T02:15:19.828Z,51.259739
2022-10-08T02:16:19.872Z,51.259544
2022-10-08T02:17:19.802Z,51.259525
2022-10-08T02:18:19.803Z,51.259571
2022-10-08T02:19:19.801Z,51.259529
2022-10-08T02:20:19.780Z,51.259495
2022-10-08T02:21:19.812Z,51.259411
2022-10-08T02:22:19.769Z,51.259605
2022-10-08T02:23:19.759Z,51.259609
2022-10-08T02:24:19.773Z,51.259644
2022-10-08T02:25:19.763Z,51.259575
2022-10-08T02:26:19.732Z,51.259602
2022-10-08T02:27:19.724Z,51.259663
2022-10-08T02:28:19.735Z,51.259583
2022-10-08T02:29:19.717Z,51.259598
2022-10-08T02:30:19.695Z,51.259609
2022-10-08T02:31:19.691Z,51.259533
2022-10-08T02:32:19.667Z,51.259609
2022-10-08T02:33:19.661Z,51.259605
2022-10-08T02:34:19.666Z,51.259548
2022-10-08T02:35:19.627Z,51.259563
2022-10-08T02:36:19.640Z,51.259548
2022-10-08T02:37:19.623Z,51.259575
2022-10-08T02:38:19.611Z,51.259556
2022-10-08T02:39:19.608Z,51.259583
2022-10-08T02:40:19.590Z,51.259541
2022-10-08T02:41:19.562Z,51.259567
2022-10-08T02:42:20.566Z,51.259579
2022-10-08T02:43:19.548Z,51.259579
2022-10-08T02:44:19.572Z,51.259563
2022-10-08T02:45:19.542Z,51.259624
2022-10-08T02:46:19.576Z,51.259563
2022-10-08T02:47:19.525Z,51.259571
2022-10-08T02:48:19.518Z,51.259594
2022-10-08T02:49:19.520Z,51.259590
2022-10-08T02:50:19.498Z,51.259544
2022-10-08T02:51:19.476Z,51.259583
2022-10-08T02:52:20.104Z,51.259613
2022-10-08T02:53:19.470Z,51.259594
2022-10-08T02:54:19.472Z,51.259518
2022-10-08T02:55:19.433Z,51.259583
2022-10-08T02:56:19.430Z,51.259590
2022-10-08T02:57:19.418Z,51.259529
2022-10-08T02:58:19.410Z,51.259556
2022-10-08T02:59:19.461Z,51.259560
2022-10-08T03:00:19.394Z,51.259586
2022-10-08T03:01:19.438Z,51.259560
2022-10-08T03:02:19.456Z,51.259541
2022-10-08T03:03:19.364Z,51.259563
2022-10-08T03:04:19.380Z,51.259567
2022-10-08T03:05:19.346Z,51.259552
2022-10-08T03:06:19.323Z,51.259514
2022-10-08T03:07:19.322Z,51.259548
2022-10-08T03:08:19.309Z,51.259583
2022-10-08T03:09:19.305Z,51.259560
2022-10-08T03:10:19.306Z,51.259548
2022-10-08T03:11:19.287Z,51.259529
2022-10-08T03:12:19.272Z,51.259560
2022-10-08T03:13:19.270Z,51.259594
2022-10-08T03:14:19.271Z,51.259628
2022-10-08T03:15:19.270Z,51.259617
2022-10-08T03:16:19.261Z,51.259563
2022-10-08T03:17:19.230Z,51.259617
2022-10-08T03:18:19.216Z,51.259621
2022-10-08T03:19:19.208Z,51.259613
2022-10-08T03:20:19.214Z,51.259617
2022-10-08T03:21:19.192Z,51.259617
2022-10-08T03:22:19.174Z,51.259697
2022-10-08T03:23:19.175Z,51.259666
2022-10-08T03:24:19.164Z,51.259624
2022-10-08T03:25:19.171Z,51.259586
2022-10-08T03:26:19.145Z,51.259586
2022-10-08T03:27:19.126Z,51.259583
2022-10-08T03:28:19.188Z,51.259556
2022-10-08T03:29:19.113Z,51.259556
2022-10-08T03:30:19.125Z,51.259583
2022-10-08T03:31:19.168Z,51.259571
2022-10-08T03:32:19.085Z,51.259552
2022-10-08T03:33:19.076Z,51.259514
2022-10-08T03:34:19.085Z,51.259598
2022-10-08T03:35:19.069Z,51.259628
2022-10-08T03:36:19.050Z,51.259609
2022-10-08T03:37:19.037Z,51.259537
2022-10-08T03:38:19.016Z,51.259575
2022-10-08T03:39:19.010Z,51.259583
2022-10-08T03:40:20.115Z,51.259590
2022-10-08T03:41:19.004Z,51.259583
2022-10-08T03:42:18.988Z,51.259571
2022-10-08T03:43:18.972Z,51.259563
2022-10-08T03:44:18.976Z,51.259563
2022-10-08T03:45:18.978Z,51.259529
2022-10-08T03:46:18.986Z,51.259518
2022-10-08T03:47:18.938Z,51.259525
2022-10-08T03:48:18.925Z,51.259533
2022-10-08T03:49:18.918Z,51.259533
2022-10-08T03:50:18.927Z,51.259491
2022-10-08T03:51:18.903Z,51.259518
2022-10-08T03:52:18.896Z,51.259533
2022-10-08T03:53:18.877Z,51.259518
2022-10-08T03:54:18.879Z,51.259518
2022-10-08T03:55:18.882Z,51.259521
2022-10-08T03:56:18.860Z,51.259563
2022-10-08T03:57:18.837Z,51.259575
2022-10-08T03:58:18.833Z,51.259529
2022-10-08T03:59:18.832Z,51.259525
2022-10-08T04:00:18.825Z,51.259533
2022-10-08T04:01:18.847Z,51.259548
2022-10-08T04:02:18.811Z,51.259548
2022-10-08T04:03:18.793Z,51.259590
2022-10-08T04:04:21.844Z,51.259583
2022-10-08T04:05:19.782Z,51.259541
2022-10-08T04:06:18.752Z,51.259514
2022-10-08T04:07:18.758Z,51.259464
2022-10-08T04:08:18.739Z,51.259552
2022-10-08T04:09:18.729Z,51.259483
2022-10-08T04:10:18.735Z,51.259426
2022-10-08T04:11:18.746Z,51.259529
2022-10-08T04:12:18.700Z,51.259544
2022-10-08T04:13:18.676Z,51.259525
2022-10-08T04:14:18.681Z,51.259483
2022-10-08T04:15:18.686Z,51.259487
2022-10-08T04:16:18.795Z,51.259514
2022-10-08T04:17:18.644Z,51.259514
2022-10-08T04:18:18.645Z,51.259651
2022-10-08T04:19:18.639Z,51.259563
2022-10-08T04:20:18.632Z,51.259472
2022-10-08T04:21:18.607Z,51.259537
2022-10-08T04:22:18.601Z,51.259476
2022-10-08T04:23:18.593Z,51.259499
2022-10-08T04:24:18.592Z,51.259617
2022-10-08T04:25:18.590Z,51.259548
2022-10-08T04:26:18.563Z,51.259480
2022-10-08T04:27:18.556Z,51.259472
2022-10-08T04:28:18.579Z,51.259411
2022-10-08T04:29:18.534Z,51.259354
2022-10-08T04:30:18.550Z,51.259388
2022-10-08T04:31:18.557Z,51.259453
2022-10-08T04:32:18.509Z,51.259457
2022-10-08T04:33:18.489Z,51.259441
2022-10-08T04:34:18.490Z,51.259426
2022-10-08T04:35:18.496Z,51.259537
2022-10-08T04:36:18.474Z,51.259514
2022-10-08T04:37:18.454Z,51.259457
2022-10-08T04:38:18.457Z,51.259480
2022-10-08T04:39:18.440Z,51.259525
2022-10-08T04:40:18.441Z,51.259495
2022-10-08T04:41:18.417Z,51.259495
2022-10-08T04:42:18.414Z,51.259529
2022-10-08T04:43:18.398Z,51.259506
2022-10-08T04:44:18.493Z,51.259502
2022-10-08T04:45:18.388Z,51.259464
2022-10-08T04:46:18.438Z,51.259445
2022-10-08T04:47:18.354Z,51.259491
2022-10-08T04:48:18.341Z,51.259533
2022-10-08T04:49:18.332Z,51.259514
2022-10-08T04:50:18.349Z,51.259579
2022-10-08T04:51:18.318Z,51.259586
2022-10-08T04:52:18.305Z,51.259499
2022-10-08T04:53:18.528Z,51.259506
2022-10-08T04:54:18.291Z,51.259468
2022-10-08T04:55:18.290Z,51.259491
2022-10-08T04:56:18.269Z,51.259537
2022-10-08T04:57:18.245Z,51.259499
2022-10-08T04:58:18.247Z,51.259548
2022-10-08T04:59:18.229Z,51.259594
2022-10-08T05:00:19.339Z,51.259544
2022-10-08T05:01:18.238Z,51.259480
2022-10-08T05:02:18.234Z,51.259476
2022-10-08T05:03:18.194Z,51.259480
2022-10-08T05:04:18.190Z,51.259514
2022-10-08T05:05:18.268Z,51.259518
2022-10-08T05:06:18.163Z,51.259491
2022-10-08T05:07:18.155Z,51.259464
2022-10-08T05:08:18.146Z,51.259533
2022-10-08T05:09:18.133Z,51.259483
2022-10-08T05:10:18.263Z,51.259506
2022-10-08T05:11:18.124Z,51.259518
2022-10-08T05:12:18.107Z,51.259529
2022-10-08T05:13:18.092Z,51.259537
2022-10-08T05:14:18.099Z,51.259502
2022-10-08T05:15:18.094Z,51.259457
2022-10-08T05:16:18.161Z,51.259460
2022-10-08T05:17:18.048Z,51.259552
2022-10-08T05:18:18.044Z,51.259518
2022-10-08T05:19:18.042Z,51.259529
2022-10-08T05:20:18.038Z,51.259525
2022-10-08T05:21:18.007Z,51.259518
2022-10-08T05:22:18.004Z,51.259552
2022-10-08T05:23:18.001Z,51.259418
2022-10-08T05:24:17.984Z,51.259514
2022-10-08T05:25:17.992Z,51.259487
2022-10-08T05:26:17.957Z,51.259476
2022-10-08T05:27:17.956Z,51.259506
2022-10-08T05:28:18.006Z,51.259480
2022-10-08T05:29:17.924Z,51.259460
2022-10-08T05:30:21.846Z,51.259506
2022-10-08T05:31:18.950Z,51.259521
2022-10-08T05:32:17.909Z,51.259476
2022-10-08T05:33:17.874Z,51.259544
2022-10-08T05:34:17.887Z,51.259491
2022-10-08T05:35:17.884Z,51.259560
2022-10-08T05:36:17.862Z,51.259567
2022-10-08T05:37:17.845Z,51.259544
2022-10-08T05:38:17.833Z,51.259483
2022-10-08T05:39:17.820Z,51.259418
2022-10-08T05:40:17.833Z,51.259468
2022-10-08T05:41:17.800Z,51.259468
2022-10-08T05:42:18.800Z,51.259491
2022-10-08T05:43:17.786Z,51.259445
2022-10-08T05:44:17.786Z,51.259430
2022-10-08T05:45:17.777Z,51.259430
2022-10-08T05:46:17.809Z,51.259388
2022-10-08T05:47:17.744Z,51.259354
2022-10-08T05:48:17.747Z,51.259388
2022-10-08T05:49:17.721Z,51.259426
2022-10-08T05:50:17.739Z,51.259460
2022-10-08T05:51:17.706Z,51.259525
2022-10-08T05:52:17.693Z,51.259453
2022-10-08T05:53:17.677Z,51.259441
2022-10-08T05:54:17.675Z,51.259388
2022-10-08T05:55:17.680Z,51.259441
2022-10-08T05:56:17.651Z,51.259411
2022-10-08T05:57:17.644Z,51.259426
2022-10-08T05:58:17.633Z,51.259392
2022-10-08T05:59:17.613Z,51.259380
2022-10-08T06:00:18.633Z,51.259472
2022-10-08T06:01:17.609Z,51.259476
2022-10-08T06:02:17.590Z,51.259468
2022-10-08T06:03:17.586Z,51.259415
2022-10-08T06:04:17.634Z,51.259407
2022-10-08T06:05:17.574Z,51.259415
2022-10-08T06:06:17.554Z,51.259384
2022-10-08T06:07:17.547Z,51.259384
2022-10-08T06:08:17.525Z,51.259441
2022-10-08T06:09:17.532Z,51.259449
2022-10-08T06:10:17.535Z,51.259460
2022-10-08T06:11:17.508Z,51.259441
2022-10-08T06:12:17.494Z,51.259430
2022-10-08T06:13:17.486Z,51.259518
2022-10-08T06:14:17.481Z,51.259701
2022-10-08T06:15:17.487Z,51.259560
2022-10-08T06:16:17.490Z,51.259533
2022-10-08T06:17:17.436Z,51.259476
2022-10-08T06:18:17.438Z,51.259472
2022-10-08T06:19:17.424Z,51.259541
2022-10-08T06:20:17.427Z,51.259491
2022-10-08T06:21:17.391Z,51.259560
2022-10-08T06:22:17.392Z,51.259457
2022-10-08T06:23:17.387Z,51.259491
2022-10-08T06:24:17.371Z,51.259586
2022-10-08T06:25:17.379Z,51.259472
2022-10-08T06:26:17.346Z,51.259544
2022-10-08T06:27:17.348Z,51.259632
2022-10-08T06:28:17.372Z,51.259674
2022-10-08T06:29:17.310Z,51.259560
2022-10-08T06:30:17.340Z,51.259529
2022-10-08T06:31:17.355Z,51.259483
2022-10-08T06:32:17.297Z,51.259468
2022-10-08T06:33:17.268Z,51.259502
2022-10-08T06:34:17.271Z,51.259594
2022-10-08T06:35:17.289Z,51.259613
2022-10-08T06:36:17.254Z,51.259811
2022-10-08T06:37:17.235Z,51.259838
2022-10-08T06:38:17.240Z,51.259666
2022-10-08T06:39:17.231Z,51.259632
2022-10-08T06:40:17.238Z,51.259583
2022-10-08T06:41:17.195Z,51.259575
2022-10-08T06:42:17.203Z,51.259602
2022-10-08T06:43:17.194Z,51.259468
2022-10-08T06:44:17.182Z,51.259529
2022-10-08T06:45:17.182Z,51.259560
2022-10-08T06:46:17.214Z,51.259541
2022-10-08T06:47:17.144Z,51.259640
2022-10-08T06:48:17.128Z,51.259457
2022-10-08T06:49:18.127Z,51.259525
2022-10-08T06:50:17.136Z,51.259670
2022-10-08T06:51:17.111Z,51.259735
2022-10-08T06:52:43.572Z,51.259586
2022-10-08T06:53:17.090Z,51.259621
2022-10-08T06:54:17.079Z,51.259644
2022-10-08T06:55:17.078Z,51.259602
2022-10-08T06:56:17.055Z,51.259724
2022-10-08T06:57:17.625Z,51.259663
2022-10-08T06:58:17.035Z,51.259644
2022-10-08T06:59:17.032Z,51.259590
2022-10-08T07:00:17.033Z,51.259624
2022-10-08T07:01:17.139Z,51.259621
2022-10-08T07:02:17.046Z,51.259647
2022-10-08T07:03:17.005Z,51.259605
2022-10-08T07:04:16.990Z,51.259602
2022-10-08T07:05:16.990Z,51.259571
2022-10-08T07:06:16.961Z,51.259491
2022-10-08T07:07:16.952Z,51.259518
2022-10-08T07:08:16.961Z,51.259514
2022-10-08T07:09:16.930Z,51.259548
2022-10-08T07:10:18.549Z,51.259682
2022-10-08T07:11:17.898Z,51.259594
2022-10-08T07:12:16.905Z,51.259624
2022-10-08T07:13:16.896Z,51.259422
2022-10-08T07:14:16.888Z,51.259468
2022-10-08T07:15:16.894Z,51.259483
2022-10-08T07:16:20.524Z,51.259575
2022-10-08T07:17:17.853Z,51.259518
2022-10-08T07:18:16.841Z,51.259583
2022-10-08T07:19:16.833Z,51.259609
2022-10-08T07:20:16.845Z,51.259529
2022-10-08T07:21:16.821Z,51.259544
2022-10-08T07:22:16.797Z,51.259560
2022-10-08T07:23:16.796Z,51.259518
2022-10-08T07:24:16.788Z,51.259594
2022-10-08T07:25:16.801Z,51.259548
2022-10-08T07:26:16.768Z,51.259415
2022-10-08T07:27:16.758Z,51.259514
2022-10-08T07:28:16.760Z,51.259651
2022-10-08T07:29:16.744Z,51.259720
2022-10-08T07:30:16.754Z,51.259579
2022-10-08T07:31:16.784Z,51.259579
2022-10-08T07:32:16.712Z,51.259583
2022-10-08T07:33:16.713Z,51.259640
2022-10-08T07:34:16.684Z,51.259560
2022-10-08T07:35:17.129Z,51.259594
2022-10-08T07:36:16.694Z,51.259598
2022-10-08T07:37:16.679Z,51.259521
2022-10-08T07:38:16.651Z,51.259541
2022-10-08T07:39:16.659Z,51.259552
2022-10-08T07:40:16.662Z,51.259579
2022-10-08T07:41:16.632Z,51.259552
2022-10-08T07:42:16.614Z,51.259502
2022-10-08T07:43:19.670Z,51.259514
2022-10-08T07:44:17.599Z,51.259499
2022-10-08T07:45:16.678Z,51.259510
2022-10-08T07:46:16.641Z,51.259602
2022-10-08T07:47:16.571Z,51.259571
2022-10-08T07:48:16.562Z,51.259590
2022-10-08T07:49:16.566Z,51.259499
2022-10-08T07:50:16.539Z,51.259533
2022-10-08T07:51:16.546Z,51.259499
2022-10-08T07:52:16.519Z,51.259556
2022-10-08T07:53:16.509Z,51.259628
2022-10-08T07:54:16.505Z,51.259605
2022-10-08T07:55:16.571Z,51.259571
2022-10-08T07:56:16.497Z,51.259476
2022-10-08T07:57:16.478Z,51.259563
2022-10-08T07:58:16.461Z,51.259670
2022-10-08T07:59:16.520Z,51.259609
2022-10-08T08:00:16.451Z,51.259613
2022-10-08T08:01:16.574Z,51.259583
2022-10-08T08:02:16.479Z,51.259617
2022-10-08T08:03:16.409Z,51.259605
2022-10-08T08:04:16.402Z,51.259628
2022-10-08T08:05:16.396Z,51.259602
2022-10-08T08:06:16.399Z,51.259487
2022-10-08T08:07:16.383Z,51.259560
2022-10-08T08:08:16.389Z,51.259544
2022-10-08T08:09:16.390Z,51.259548
2022-10-08T08:10:16.350Z,51.259533
2022-10-08T08:11:16.351Z,51.259659
2022-10-08T08:12:16.490Z,51.259613
2022-10-08T08:13:16.360Z,51.259583
2022-10-08T08:14:16.303Z,51.259586
2022-10-08T08:15:16.296Z,51.259510
2022-10-08T08:16:16.347Z,51.259529
2022-10-08T08:17:16.273Z,51.259621
2022-10-08T08:18:16.291Z,51.259556
2022-10-08T08:19:16.260Z,51.259548
2022-10-08T08:20:16.241Z,51.259613
2022-10-08T08:21:16.308Z,51.259659
2022-10-08T08:22:16.228Z,51.259888
2022-10-08T08:23:16.241Z,51.259895
2022-10-08T08:24:16.226Z,51.259674
2022-10-08T08:25:16.197Z,51.259541
2022-10-08T08:26:16.206Z,51.259613
2022-10-08T08:27:16.231Z,51.259773
2022-10-08T08:28:16.216Z,51.259766
2022-10-08T08:29:16.163Z,51.259804
2022-10-08T08:30:16.169Z,51.259773
2022-10-08T08:31:16.244Z,51.259720
2022-10-08T08:32:16.128Z,51.259708
2022-10-08T08:33:16.109Z,51.259758
2022-10-08T08:34:16.116Z,51.259861
2022-10-08T08:35:16.137Z,51.259747
2022-10-08T08:36:16.102Z,51.259201
2022-10-08T08:37:16.066Z,51.259045
2022-10-08T08:38:17.052Z,51.259243
2022-10-08T08:39:16.053Z,51.259754
2022-10-08T08:40:16.042Z,51.259991
2022-10-08T08:41:20.351Z,51.259853
2022-10-08T08:42:17.023Z,51.260059
2022-10-08T08:43:16.022Z,51.259979
2022-10-08T08:44:16.005Z,51.259911
2022-10-08T08:45:41.513Z,51.259617
2022-10-08T08:46:18.042Z,51.259655
2022-10-08T08:47:15.981Z,51.259777
2022-10-08T08:48:15.961Z,51.259552
2022-10-08T08:49:15.968Z,51.259594
2022-10-08T08:50:15.940Z,51.259472
2022-10-08T08:51:15.953Z,51.259434
2022-10-08T08:52:15.915Z,51.259567
2022-10-08T08:53:15.913Z,51.259624
2022-10-08T08:54:15.888Z,51.259670
2022-10-08T08:55:15.891Z,51.259556
2022-10-08T08:56:15.899Z,51.259537
2022-10-08T08:57:15.863Z,51.259621
2022-10-08T08:58:15.847Z,51.259552
2022-10-08T08:59:15.854Z,51.259506
2022-10-08T09:00:15.839Z,51.259491
2022-10-08T09:01:15.916Z,51.259499
2022-10-08T09:02:15.829Z,51.259438
2022-10-08T09:03:15.805Z,51.259457
2022-10-08T09:04:15.809Z,51.259495
2022-10-08T09:05:15.832Z,51.259483
2022-10-08T09:06:15.803Z,51.259598
2022-10-08T09:07:15.771Z,51.259529
2022-10-08T09:08:15.770Z,51.259521
2022-10-08T09:09:15.754Z,51.259502
2022-10-08T09:10:15.742Z,51.259438
2022-10-08T09:11:15.753Z,51.259399
2022-10-08T09:12:20.478Z,51.259392
2022-10-08T09:13:17.721Z,51.259453
2022-10-08T09:14:15.698Z,51.259319
2022-10-08T09:15:15.684Z,51.259380
2022-10-08T09:16:15.772Z,51.259411
2022-10-08T09:17:15.674Z,51.259430
2022-10-08T09:18:15.709Z,51.259411
2022-10-08T09:19:15.648Z,51.259418
2022-10-08T09:20:15.635Z,51.259384
2022-10-08T09:21:15.701Z,51.259426
2022-10-08T09:22:15.614Z,51.259441
2022-10-08T09:23:15.606Z,51.259483
2022-10-08T09:24:15.612Z,51.259533
2022-10-08T09:25:15.599Z,51.259583
2022-10-08T09:26:15.610Z,51.259514
2022-10-08T09:27:15.577Z,51.259449
2022-10-08T09:28:15.611Z,51.259487
2022-10-08T09:29:15.557Z,51.259560
2022-10-08T09:30:15.533Z,51.259510
2022-10-08T09:31:15.570Z,51.259495
2022-10-08T09:32:15.524Z,51.259499
2022-10-08T09:33:15.512Z,51.259480
2022-10-08T09:34:15.498Z,51.259521
2022-10-08T09:35:15.497Z,51.259537
2022-10-08T09:36:15.504Z,51.259556
2022-10-08T09:37:15.485Z,51.259495
2022-10-08T09:38:15.468Z,51.259502
2022-10-08T09:39:15.450Z,51.259510
2022-10-08T09:40:15.446Z,51.259621
2022-10-08T09:41:15.457Z,51.259506
2022-10-08T09:42:15.453Z,51.259514
2022-10-08T09:43:15.407Z,51.259426
2022-10-08T09:44:15.403Z,51.259472
2022-10-08T09:45:19.122Z,51.259552
2022-10-08T09:46:16.483Z,51.259556
2022-10-08T09:47:15.373Z,51.259514
2022-10-08T09:48:15.363Z,51.259529
2022-10-08T09:49:15.355Z,51.259689
2022-10-08T09:50:15.354Z,51.259621
2022-10-08T09:51:15.341Z,51.259632
2022-10-08T09:52:17.325Z,51.259567
2022-10-08T09:53:16.321Z,51.259464
2022-10-08T09:54:15.303Z,51.259483
2022-10-08T09:55:15.324Z,51.259495
2022-10-08T09:56:15.307Z,51.259476
2022-10-08T09:57:15.260Z,51.259460
2022-10-08T09:58:15.257Z,51.259480
2022-10-08T09:59:15.256Z,51.259571
2022-10-08T10:00:15.311Z,51.259590
2022-10-08T10:01:15.391Z,51.259609
2022-10-08T10:02:15.238Z,51.259586
2022-10-08T10:03:15.236Z,51.259575
2022-10-08T10:04:15.315Z,51.259602
2022-10-08T10:05:15.197Z,51.259617
2022-10-08T10:06:20.365Z,51.259525
2022-10-08T10:07:17.190Z,51.259586
2022-10-08T10:08:15.216Z,51.259502
2022-10-08T10:09:15.164Z,51.259548
2022-10-08T10:10:15.150Z,51.259537
2022-10-08T10:11:15.226Z,51.259525
2022-10-08T10:12:15.127Z,51.259651
2022-10-08T10:13:15.123Z,51.259640
2022-10-08T10:14:15.109Z,51.259556
2022-10-08T10:15:15.097Z,51.259583
2022-10-08T10:16:15.103Z,51.259560
2022-10-08T10:17:15.074Z,51.259563
2022-10-08T10:18:15.181Z,51.259567
2022-10-08T10:19:15.058Z,51.259552
2022-10-08T10:20:15.052Z,51.259609
2022-10-08T10:21:15.054Z,51.259590
2022-10-08T10:22:15.032Z,51.259636
2022-10-08T10:23:15.023Z,51.259552
2022-10-08T10:24:15.006Z,51.259636
2022-10-08T10:25:14.996Z,51.259640
2022-10-08T10:26:15.000Z,51.259598
2022-10-08T10:27:14.978Z,51.259605
2022-10-08T10:28:15.118Z,51.259563
2022-10-08T10:29:14.950Z,51.259575
2022-10-08T10:30:14.961Z,51.259514
2022-10-08T10:31:15.008Z,51.259560
2022-10-08T10:32:16.214Z,51.259525
2022-10-08T10:33:14.922Z,51.259502
2022-10-08T10:34:15.018Z,51.259579
2022-10-08T10:35:14.902Z,51.259560
2022-10-08T10:36:14.936Z,51.259533
2022-10-08T10:37:14.880Z,51.259491
2022-10-08T10:38:14.870Z,51.259541
2022-10-08T10:39:14.891Z,51.259583
2022-10-08T10:40:14.846Z,51.259537
2022-10-08T10:41:14.877Z,51.259521
2022-10-08T10:42:15.835Z,51.259529
2022-10-08T10:43:14.854Z,51.259575
2022-10-08T10:44:14.814Z,51.259529
2022-10-08T10:45:14.816Z,51.259499
2022-10-08T10:46:14.911Z,51.259514
2022-10-08T10:47:14.787Z,51.259537
2022-10-08T10:48:14.804Z,51.259556
2022-10-08T10:49:14.786Z,51.259560
2022-10-08T10:50:14.754Z,51.259548
2022-10-08T10:51:14.770Z,51.259499
2022-10-08T10:52:14.745Z,51.259518
2022-10-08T10:53:14.715Z,51.259567
2022-10-08T10:54:14.724Z,51.259529
2022-10-08T10:55:14.742Z,51.259510
2022-10-08T10:56:14.703Z,51.259579
2022-10-08T10:57:14.737Z,51.259567
2022-10-08T10:58:14.688Z,51.259537
2022-10-08T10:59:14.672Z,51.259510
2022-10-08T11:00:14.693Z,51.259571
2022-10-08T11:01:14.795Z,51.259541
2022-10-08T11:02:14.692Z,51.259487
2022-10-08T11:03:14.637Z,51.259518
2022-10-08T11:04:14.611Z,51.259529
2022-10-08T11:05:14.608Z,51.259514
2022-10-08T11:06:14.607Z,51.259552
2022-10-08T11:07:14.613Z,51.259468
2022-10-08T11:08:14.601Z,51.259560
2022-10-08T11:09:14.580Z,51.259491
2022-10-08T11:10:14.630Z,51.259598
2022-10-08T11:11:14.601Z,51.259510
2022-10-08T11:12:14.547Z,51.259590
2022-10-08T11:13:14.520Z,51.259552
2022-10-08T11:14:14.530Z,51.259502
2022-10-08T11:15:14.510Z,51.259552
2022-10-08T11:16:14.586Z,51.259499
2022-10-08T11:17:16.754Z,51.259453
2022-10-08T11:18:14.479Z,51.259468
2022-10-08T11:19:14.464Z,51.259567
2022-10-08T11:20:14.515Z,51.259632
2022-10-08T11:21:14.443Z,51.259586
2022-10-08T11:22:14.448Z,51.259609
2022-10-08T11:23:14.417Z,51.259560
2022-10-08T11:24:14.423Z,51.259460